Terminal Aerodrome Forecast
Issued by NWS

Current Version | Previous Version | Text Only | Print | Product List | Glossary On
Versions: 1 2 3 4 5 6 7 8 9 10 11 12
006
FTUS45 KRIW 112331
TAFBPI
TAF
KBPI 112331Z 1200/1224 VRB06KT P6SM FEW120 SCT250
     FM120300 34006KT P6SM BKN120
     FM121400 VRB05KT P6SM SCT150 BKN250=

USA.gov is the U.S. government's official web portal to all federal, state and local government web resources and services.